createdAt,value
2022-10-12T00:01:57.734Z,93.62
2022-10-12T00:04:24.150Z,93.79
2022-10-12T00:06:50.569Z,93.90
2022-10-12T00:09:17.056Z,94.11
2022-10-12T00:11:43.890Z,94.06
2022-10-12T00:14:10.315Z,94.33
2022-10-12T00:16:36.890Z,93.88
2022-10-12T00:19:03.477Z,93.93
2022-10-12T00:21:30.429Z,94.00
2022-10-12T00:23:58.889Z,93.79
2022-10-12T00:26:26.398Z,93.95
2022-10-12T00:28:59.409Z,93.40
2022-10-12T00:31:27.434Z,93.77
2022-10-12T00:33:55.043Z,93.52
2022-10-12T00:36:33.920Z,93.27
2022-10-12T00:39:01.552Z,93.59
2022-10-12T00:41:35.842Z,93.42
2022-10-12T00:44:02.674Z,93.15
2022-10-12T00:46:42.085Z,93.27
2022-10-12T00:49:14.259Z,93.22
2022-10-12T00:51:43.545Z,93.56
2022-10-12T00:54:15.216Z,93.61
2022-10-12T00:56:44.025Z,93.78
2022-10-12T00:59:18.844Z,93.85
2022-10-12T01:01:45.662Z,93.93
2022-10-12T01:04:12.429Z,94.15
2022-10-12T01:06:39.074Z,93.79
2022-10-12T01:09:05.461Z,93.86
2022-10-12T01:11:31.825Z,94.03
2022-10-12T01:13:58.418Z,93.84
2022-10-12T01:16:37.211Z,93.10
2022-10-12T01:19:15.613Z,93.76
2022-10-12T01:21:48.253Z,94.09
2022-10-12T01:24:34.490Z,93.79
2022-10-12T01:27:03.235Z,93.83
2022-10-12T01:30:10.069Z,94.07
2022-10-12T01:32:48.292Z,93.79
2022-10-12T01:35:33.663Z,94.00
2022-10-12T01:38:09.015Z,93.75
2022-10-12T01:40:51.096Z,93.54
2022-10-12T01:43:18.336Z,93.85
2022-10-12T01:45:44.825Z,94.18
2022-10-12T01:48:11.334Z,94.21
2022-10-12T01:50:56.039Z,93.90
2022-10-12T01:53:38.953Z,93.72
2022-10-12T01:56:26.918Z,93.57
2022-10-12T01:59:21.168Z,93.61
2022-10-12T02:02:05.857Z,93.37
2022-10-12T02:04:44.286Z,93.26
2022-10-12T02:07:20.993Z,92.98
2022-10-12T02:09:47.883Z,93.04
2022-10-12T02:12:19.257Z,92.83
2022-10-12T02:14:49.962Z,93.03
2022-10-12T02:17:20.371Z,92.96
2022-10-12T02:19:51.646Z,92.56
2022-10-12T02:22:18.141Z,93.08
2022-10-12T02:24:49.010Z,93.57
2022-10-12T02:27:18.269Z,93.89
2022-10-12T02:29:47.746Z,93.44
2022-10-12T02:32:23.819Z,93.81
2022-10-12T02:35:08.631Z,93.60
2022-10-12T02:37:40.605Z,94.10
2022-10-12T02:40:17.694Z,94.28
2022-10-12T02:43:09.899Z,94.21
2022-10-12T02:45:39.887Z,94.29
2022-10-12T02:48:09.356Z,95.13
2022-10-12T02:50:36.388Z,94.76
2022-10-12T02:53:03.264Z,95.36
2022-10-12T02:55:31.049Z,94.97
2022-10-12T02:57:57.474Z,95.19
2022-10-12T03:00:23.929Z,95.40
2022-10-12T03:02:50.323Z,95.94
2022-10-12T03:05:16.741Z,95.84
2022-10-12T03:07:43.172Z,96.24
2022-10-12T03:10:09.832Z,96.62
2022-10-12T03:12:36.222Z,96.57
2022-10-12T03:15:02.633Z,96.77
2022-10-12T03:17:28.998Z,96.33
2022-10-12T03:19:55.440Z,96.54
2022-10-12T03:22:21.945Z,97.08
2022-10-12T03:24:48.491Z,96.94
2022-10-12T03:27:14.895Z,97.29
2022-10-12T03:29:41.265Z,97.41
2022-10-12T03:32:07.628Z,97.15
2022-10-12T03:34:34.104Z,97.41
2022-10-12T03:37:00.583Z,97.48
2022-10-12T03:39:26.992Z,97.28
2022-10-12T03:41:53.354Z,97.31
2022-10-12T03:44:19.839Z,97.11
2022-10-12T03:46:46.241Z,97.23
2022-10-12T03:49:12.643Z,97.16
2022-10-12T03:51:39.000Z,97.45
2022-10-12T03:54:05.451Z,97.50
2022-10-12T03:56:31.847Z,97.16
2022-10-12T03:58:58.324Z,97.73
2022-10-12T04:01:25.641Z,96.99
2022-10-12T04:03:52.064Z,97.70
2022-10-12T04:06:18.522Z,97.07
2022-10-12T04:08:50.510Z,97.23
2022-10-12T04:11:17.537Z,96.48
2022-10-12T04:13:44.073Z,96.61
2022-10-12T04:16:10.674Z,96.83
2022-10-12T04:18:37.061Z,96.41
2022-10-12T04:21:08.835Z,96.56
2022-10-12T04:23:35.190Z,96.92
2022-10-12T04:26:01.542Z,97.26
2022-10-12T04:28:27.928Z,96.83
2022-10-12T04:30:54.439Z,97.22
2022-10-12T04:33:20.803Z,97.33
2022-10-12T04:35:47.250Z,97.49
2022-10-12T04:38:13.891Z,97.25
2022-10-12T04:40:40.376Z,96.87
2022-10-12T04:43:06.714Z,97.54
2022-10-12T04:45:33.081Z,96.91
2022-10-12T04:47:59.447Z,96.97
2022-10-12T04:50:29.825Z,97.66
2022-10-12T04:52:56.484Z,97.38
2022-10-12T04:55:22.895Z,97.94
2022-10-12T04:57:50.050Z,97.77
2022-10-12T05:00:17.208Z,97.61
2022-10-12T05:02:43.688Z,97.43
2022-10-12T05:05:10.576Z,97.78
2022-10-12T05:07:37.229Z,97.96
2022-10-12T05:10:04.274Z,97.72
2022-10-12T05:12:30.690Z,97.50
2022-10-12T05:14:57.053Z,97.23
2022-10-12T05:17:23.458Z,97.15
2022-10-12T05:19:49.895Z,97.32
2022-10-12T05:22:16.306Z,97.79
2022-10-12T05:24:42.685Z,97.25
2022-10-12T05:27:09.064Z,97.61
2022-10-12T05:29:35.475Z,97.61
2022-10-12T05:32:01.856Z,97.10
2022-10-12T05:34:28.247Z,97.31
2022-10-12T05:36:55.210Z,96.68
2022-10-12T05:39:21.585Z,96.66
2022-10-12T05:41:47.997Z,96.52
2022-10-12T05:44:14.365Z,96.82
2022-10-12T05:46:40.747Z,96.58
2022-10-12T05:49:08.057Z,96.56
2022-10-12T05:51:34.448Z,96.34
2022-10-12T05:54:00.861Z,96.61
2022-10-12T05:56:27.220Z,96.71
2022-10-12T05:58:53.589Z,96.83
2022-10-12T06:01:20.036Z,96.37
2022-10-12T06:03:46.386Z,97.02
2022-10-12T06:06:12.960Z,96.43
2022-10-12T06:08:39.527Z,96.65
2022-10-12T06:11:06.643Z,96.52
2022-10-12T06:13:33.016Z,96.84
2022-10-12T06:15:59.486Z,96.58
2022-10-12T06:18:25.867Z,96.87
2022-10-12T06:21:14.898Z,96.29
2022-10-12T06:23:41.104Z,96.45
2022-10-12T06:26:07.525Z,96.81
2022-10-12T06:28:34.055Z,96.90
2022-10-12T06:31:01.036Z,96.65
2022-10-12T06:33:28.189Z,96.71
2022-10-12T06:35:55.331Z,97.08
2022-10-12T06:38:22.616Z,96.54
2022-10-12T06:40:49.345Z,96.74
2022-10-12T06:43:15.734Z,96.73
2022-10-12T06:45:42.129Z,96.87
2022-10-12T06:48:08.689Z,96.18
2022-10-12T06:50:35.241Z,96.31
2022-10-12T06:53:01.786Z,96.48
2022-10-12T06:55:28.431Z,96.53
2022-10-12T06:57:55.611Z,96.50
2022-10-12T07:00:22.257Z,96.34
2022-10-12T07:02:50.059Z,95.75
2022-10-12T07:05:16.737Z,95.90
2022-10-12T07:07:43.229Z,96.33
2022-10-12T07:10:09.902Z,96.25
2022-10-12T07:12:37.419Z,95.80
2022-10-12T07:15:05.440Z,95.94
2022-10-12T07:17:31.829Z,96.05
2022-10-12T07:19:58.198Z,95.84
2022-10-12T07:22:24.598Z,95.72
2022-10-12T07:24:50.953Z,96.42
2022-10-12T07:27:17.316Z,95.86
2022-10-12T07:29:43.757Z,96.43
2022-10-12T07:32:10.183Z,95.99
2022-10-12T07:34:36.633Z,96.36
2022-10-12T07:37:03.033Z,96.11
2022-10-12T07:39:29.742Z,95.52
2022-10-12T07:41:56.702Z,95.67
2022-10-12T07:44:24.377Z,95.33
2022-10-12T07:46:51.445Z,95.05
2022-10-12T07:49:18.401Z,95.04
2022-10-12T07:51:46.225Z,95.33
2022-10-12T07:54:19.008Z,94.58
2022-10-12T07:56:46.986Z,94.93
2022-10-12T07:59:13.367Z,95.00
2022-10-12T08:01:39.788Z,94.33
2022-10-12T08:04:06.241Z,94.29
2022-10-12T08:06:34.044Z,94.07
2022-10-12T08:09:01.554Z,93.25
2022-10-12T08:11:28.719Z,93.34
2022-10-12T08:13:55.986Z,92.94
2022-10-12T08:16:22.746Z,92.98
2022-10-12T08:18:49.216Z,93.07
2022-10-12T08:21:17.203Z,92.50
2022-10-12T08:23:46.828Z,92.22
2022-10-12T08:26:14.621Z,91.53
2022-10-12T08:28:41.215Z,91.20
2022-10-12T08:31:13.891Z,90.72
2022-10-12T08:33:40.398Z,90.94
2022-10-12T08:36:07.531Z,90.82
2022-10-12T08:38:38.542Z,91.01
2022-10-12T08:41:19.754Z,90.02
2022-10-12T08:44:11.669Z,89.31
2022-10-12T08:46:38.271Z,89.30
2022-10-12T08:49:12.976Z,89.19
2022-10-12T08:51:49.724Z,88.44
2022-10-12T08:54:20.607Z,88.24
2022-10-12T08:56:47.017Z,87.13
2022-10-12T08:59:16.533Z,87.19
2022-10-12T09:01:49.105Z,86.39
2022-10-12T09:04:34.189Z,86.45
2022-10-12T09:07:20.625Z,86.91
2022-10-12T09:10:05.858Z,86.62
2022-10-12T09:12:52.678Z,86.56
2022-10-12T09:15:26.865Z,86.57
2022-10-12T09:17:55.726Z,86.52
2022-10-12T09:20:47.196Z,86.42
2022-10-12T09:23:24.978Z,86.55
2022-10-12T09:26:01.794Z,86.23
2022-10-12T09:28:37.940Z,86.58
2022-10-12T09:31:33.175Z,86.25
2022-10-12T09:34:03.955Z,86.57
2022-10-12T09:36:48.153Z,86.47
2022-10-12T09:39:30.846Z,85.38
2022-10-12T09:41:57.286Z,86.02
2022-10-12T09:44:36.711Z,85.79
2022-10-12T09:47:23.687Z,85.73
2022-10-12T09:49:58.774Z,85.38
2022-10-12T09:52:29.654Z,85.82
2022-10-12T09:55:02.541Z,86.08
2022-10-12T09:57:35.844Z,85.63
2022-10-12T10:00:08.216Z,85.57
2022-10-12T10:02:48.456Z,84.74
2022-10-12T10:05:31.358Z,85.05
2022-10-12T10:08:23.438Z,85.58
2022-10-12T10:10:57.012Z,85.92
2022-10-12T10:13:28.017Z,86.50
2022-10-12T10:16:06.505Z,86.50
2022-10-12T10:18:36.309Z,86.17
2022-10-12T10:21:06.152Z,85.77
2022-10-12T10:23:44.578Z,85.68
2022-10-12T10:26:14.619Z,85.60
2022-10-12T10:28:46.938Z,85.66
2022-10-12T10:31:13.276Z,85.44
2022-10-12T10:33:40.806Z,85.41
2022-10-12T10:36:24.055Z,85.67
2022-10-12T10:38:59.183Z,85.79
2022-10-12T10:41:31.404Z,85.86
2022-10-12T10:43:57.901Z,85.27
2022-10-12T10:46:27.724Z,84.08
2022-10-12T10:49:06.587Z,83.53
2022-10-12T10:52:00.014Z,83.86
2022-10-12T10:54:30.686Z,83.62
2022-10-12T10:57:14.582Z,83.69
2022-10-12T10:59:50.054Z,84.16
2022-10-12T11:02:38.227Z,84.21
2022-10-12T11:05:13.335Z,84.26
2022-10-12T11:07:47.614Z,84.58
2022-10-12T11:10:27.698Z,84.47
2022-10-12T11:13:02.993Z,84.21
2022-10-12T11:15:45.728Z,84.54
2022-10-12T11:18:33.693Z,84.47
2022-10-12T11:21:23.627Z,84.19
2022-10-12T11:24:14.802Z,84.73
2022-10-12T11:26:49.942Z,84.28
2022-10-12T11:29:18.035Z,84.11
2022-10-12T11:32:03.362Z,83.97
2022-10-12T11:34:37.362Z,84.25
2022-10-12T11:37:19.123Z,84.15
2022-10-12T11:39:51.139Z,84.19
2022-10-12T11:42:30.995Z,84.12
2022-10-12T11:45:00.625Z,84.37
2022-10-12T11:47:30.104Z,83.97
2022-10-12T11:50:07.512Z,84.04
2022-10-12T11:52:44.985Z,83.68
2022-10-12T11:55:35.163Z,83.83
2022-10-12T11:58:13.710Z,83.98
2022-10-12T12:00:57.145Z,84.40
2022-10-12T12:03:43.782Z,84.13
2022-10-12T12:06:28.515Z,83.76
2022-10-12T12:08:54.825Z,83.34
2022-10-12T12:11:27.760Z,83.46
2022-10-12T12:14:26.446Z,83.44
2022-10-12T12:17:15.256Z,83.58
2022-10-12T12:19:43.289Z,83.67
2022-10-12T12:22:32.423Z,83.80
2022-10-12T12:25:10.330Z,83.92
2022-10-12T12:27:56.289Z,83.83
2022-10-12T12:30:38.720Z,83.77
2022-10-12T12:33:33.155Z,82.93
2022-10-12T12:36:06.506Z,82.44
2022-10-12T12:38:37.316Z,81.82
2022-10-12T12:41:12.667Z,81.04
2022-10-12T12:44:04.162Z,81.40
2022-10-12T12:46:52.165Z,81.59
2022-10-12T12:49:38.227Z,81.77
2022-10-12T12:52:10.711Z,81.80
2022-10-12T12:54:53.239Z,81.53
2022-10-12T12:57:29.186Z,81.49
2022-10-12T13:00:06.477Z,81.50
2022-10-12T13:02:57.408Z,81.44
2022-10-12T13:06:00.885Z,81.62
2022-10-12T13:08:36.388Z,81.92
2022-10-12T13:11:24.589Z,81.83
2022-10-12T13:14:25.185Z,81.81
2022-10-12T13:17:33.089Z,81.05
2022-10-12T13:20:09.563Z,80.41
2022-10-12T13:22:36.158Z,80.45
2022-10-12T13:25:07.003Z,80.45
2022-10-12T13:27:44.981Z,80.88
2022-10-12T13:30:11.793Z,81.09
2022-10-12T13:32:44.171Z,81.23
2022-10-12T13:35:29.201Z,81.27
2022-10-12T13:38:13.881Z,81.54
2022-10-12T13:40:43.911Z,81.29
2022-10-12T13:43:47.253Z,80.33
2022-10-12T13:46:36.214Z,79.85
2022-10-12T13:49:04.297Z,80.02
2022-10-12T13:51:31.083Z,79.58
2022-10-12T13:53:57.824Z,79.44
2022-10-12T13:56:28.775Z,79.16
2022-10-12T13:59:05.459Z,78.94
2022-10-12T14:01:48.309Z,79.01
2022-10-12T14:04:14.729Z,79.19
2022-10-12T14:06:41.131Z,79.66
2022-10-12T14:09:11.554Z,80.14
2022-10-12T14:11:38.770Z,80.40
2022-10-12T14:14:06.208Z,80.57
2022-10-12T14:16:32.616Z,80.65
2022-10-12T14:19:21.293Z,80.72
2022-10-12T14:21:49.201Z,81.04
2022-10-12T14:24:19.189Z,80.44
2022-10-12T14:26:53.974Z,80.36
2022-10-12T14:29:42.850Z,80.10
2022-10-12T14:32:12.282Z,79.99
2022-10-12T14:34:45.606Z,80.52
2022-10-12T14:37:15.052Z,80.36
2022-10-12T14:39:47.118Z,80.46
2022-10-12T14:42:26.641Z,80.94
2022-10-12T14:44:53.675Z,81.13
2022-10-12T14:47:39.887Z,80.73
2022-10-12T14:50:09.560Z,80.41
2022-10-12T14:52:41.901Z,80.25
2022-10-12T14:55:21.459Z,80.35
2022-10-12T14:57:48.928Z,80.30
2022-10-12T15:00:29.608Z,80.08
2022-10-12T15:02:56.371Z,79.55
2022-10-12T15:05:25.073Z,79.21
2022-10-12T15:07:52.133Z,78.68
2022-10-12T15:10:21.497Z,78.16
2022-10-12T15:12:48.867Z,77.91
2022-10-12T15:15:30.914Z,77.68
2022-10-12T15:17:58.336Z,77.62
2022-10-12T15:20:26.776Z,77.48
2022-10-12T15:22:53.243Z,77.74
2022-10-12T15:25:34.950Z,77.46
2022-10-12T15:28:02.261Z,77.43
2022-10-12T15:30:28.642Z,77.53
2022-10-12T15:32:55.011Z,77.93
2022-10-12T15:35:26.798Z,78.67
2022-10-12T15:37:56.190Z,79.01
2022-10-12T15:40:22.849Z,79.06
2022-10-12T15:42:49.220Z,79.28
2022-10-12T15:45:26.530Z,79.60
2022-10-12T15:47:53.606Z,79.55
2022-10-12T15:50:25.193Z,79.63
2022-10-12T15:52:51.694Z,79.71
2022-10-12T15:55:29.721Z,79.76
2022-10-12T15:57:57.162Z,79.82
2022-10-12T16:00:26.381Z,79.71
2022-10-12T16:02:54.029Z,79.86
2022-10-12T16:05:30.930Z,79.90
2022-10-12T16:07:58.090Z,79.69
2022-10-12T16:10:34.662Z,80.02
2022-10-12T16:13:01.085Z,79.95
2022-10-12T16:15:31.085Z,79.97
2022-10-12T16:17:58.477Z,80.07
2022-10-12T16:20:26.362Z,79.89
2022-10-12T16:22:52.962Z,79.53
2022-10-12T16:25:22.172Z,79.46
2022-10-12T16:27:49.287Z,79.75
2022-10-12T16:30:15.856Z,80.03
2022-10-12T16:32:42.291Z,80.31
2022-10-12T16:35:10.588Z,80.29
2022-10-12T16:37:37.076Z,80.38
2022-10-12T16:40:05.175Z,80.79
2022-10-12T16:42:31.556Z,80.88
2022-10-12T16:44:58.111Z,80.68
2022-10-12T16:47:25.523Z,81.07
2022-10-12T16:49:53.803Z,81.47
2022-10-12T16:52:24.396Z,81.85
2022-10-12T16:54:54.942Z,81.88
2022-10-12T16:57:22.498Z,82.48
2022-10-12T16:59:49.565Z,82.53
2022-10-12T17:02:17.606Z,82.63
2022-10-12T17:04:45.760Z,82.59
2022-10-12T17:07:12.226Z,82.10
2022-10-12T17:09:38.589Z,82.42
2022-10-12T17:12:05.124Z,82.28
2022-10-12T17:14:31.668Z,82.93
2022-10-12T17:16:58.067Z,83.19
2022-10-12T17:19:30.085Z,83.30
2022-10-12T17:21:59.287Z,83.11
2022-10-12T17:24:28.408Z,83.08
2022-10-12T17:26:55.848Z,83.21
2022-10-12T17:29:23.388Z,83.58
2022-10-12T17:31:50.500Z,83.72
2022-10-12T17:34:38.846Z,83.90
2022-10-12T17:37:08.225Z,83.99
2022-10-12T17:39:38.232Z,84.24
2022-10-12T17:42:05.399Z,84.60
2022-10-12T17:44:32.185Z,84.34
2022-10-12T17:46:58.898Z,84.51
2022-10-12T17:49:26.681Z,84.45
2022-10-12T17:51:53.048Z,84.88
2022-10-12T17:54:20.984Z,84.99
2022-10-12T17:56:47.549Z,84.76
2022-10-12T17:59:16.389Z,85.01
2022-10-12T18:01:43.107Z,85.28
2022-10-12T18:04:10.506Z,85.18
2022-10-12T18:06:36.915Z,85.62
2022-10-12T18:09:05.265Z,85.69
2022-10-12T18:11:32.263Z,85.93
2022-10-12T18:13:58.746Z,85.93
2022-10-12T18:16:31.448Z,85.74
2022-10-12T18:18:59.173Z,85.69
2022-10-12T18:21:27.256Z,85.63
2022-10-12T18:23:54.385Z,86.03
2022-10-12T18:26:22.131Z,86.41
2022-10-12T18:28:55.491Z,85.79
2022-10-12T18:31:26.179Z,86.32
2022-10-12T18:33:52.915Z,86.40
2022-10-12T18:36:20.454Z,85.95
2022-10-12T18:38:47.397Z,86.40
2022-10-12T18:41:17.695Z,86.95
2022-10-12T18:43:44.703Z,86.92
2022-10-12T18:46:13.937Z,86.75
2022-10-12T18:48:40.848Z,86.53
2022-10-12T18:51:15.632Z,86.78
2022-10-12T18:53:42.162Z,86.74
2022-10-12T18:56:09.863Z,87.15
2022-10-12T18:58:38.163Z,87.20
2022-10-12T19:01:12.478Z,87.50
2022-10-12T19:03:39.111Z,87.53
2022-10-12T19:06:09.078Z,87.12
2022-10-12T19:08:36.700Z,87.41
2022-10-12T19:11:05.551Z,87.03
2022-10-12T19:13:32.054Z,87.10
2022-10-12T19:16:03.840Z,87.26
2022-10-12T19:18:30.251Z,87.34
2022-10-12T19:20:56.658Z,87.05
2022-10-12T19:23:23.029Z,87.44
2022-10-12T19:25:49.598Z,86.88
2022-10-12T19:28:16.054Z,87.11
2022-10-12T19:30:42.449Z,86.85
2022-10-12T19:33:08.835Z,87.20
2022-10-12T19:35:38.545Z,86.85
2022-10-12T19:38:05.428Z,87.00
2022-10-12T19:40:34.714Z,87.03
2022-10-12T19:43:01.469Z,87.19
2022-10-12T19:45:27.820Z,87.29
2022-10-12T19:47:54.201Z,87.20
2022-10-12T19:50:20.593Z,87.34
2022-10-12T19:52:47.005Z,86.93
2022-10-12T19:55:13.512Z,87.23
2022-10-12T19:57:40.135Z,87.07
2022-10-12T20:00:08.591Z,86.66
2022-10-12T20:02:38.569Z,86.67
2022-10-12T20:05:05.262Z,86.94
2022-10-12T20:07:31.622Z,86.52
2022-10-12T20:09:58.012Z,86.46
2022-10-12T20:12:25.195Z,85.94
2022-10-12T20:14:51.616Z,86.00
2022-10-12T20:17:18.037Z,86.75
2022-10-12T20:19:44.446Z,87.21
2022-10-12T20:22:10.830Z,87.00
2022-10-12T20:24:37.251Z,87.40
2022-10-12T20:27:03.693Z,86.97
2022-10-12T20:29:30.089Z,87.30
2022-10-12T20:31:56.489Z,87.30
2022-10-12T20:34:22.877Z,87.25
2022-10-12T20:36:49.358Z,86.73
2022-10-12T20:39:15.784Z,86.88
2022-10-12T20:41:42.155Z,86.64
2022-10-12T20:44:10.154Z,87.04
2022-10-12T20:46:36.958Z,87.10
2022-10-12T20:49:04.016Z,86.75
2022-10-12T20:51:33.681Z,86.77
2022-10-12T20:54:01.010Z,86.67
2022-10-12T20:56:31.697Z,86.27
2022-10-12T20:58:58.587Z,86.57
2022-10-12T21:01:26.115Z,86.15
2022-10-12T21:03:53.452Z,86.07
2022-10-12T21:06:21.448Z,86.31
2022-10-12T21:08:53.145Z,86.01
2022-10-12T21:11:20.123Z,86.20
2022-10-12T21:13:47.030Z,86.38
2022-10-12T21:16:14.071Z,85.90
2022-10-12T21:18:41.557Z,85.79
2022-10-12T21:21:12.175Z,86.28
2022-10-12T21:23:43.739Z,86.02
2022-10-12T21:26:12.390Z,86.05
2022-10-12T21:28:39.346Z,86.65
2022-10-12T21:31:06.462Z,86.05
2022-10-12T21:33:34.278Z,85.88
2022-10-12T21:36:11.923Z,86.47
2022-10-12T21:38:39.408Z,86.64
2022-10-12T21:41:07.427Z,87.44
2022-10-12T21:43:34.972Z,87.62
2022-10-12T21:46:09.883Z,88.32
2022-10-12T21:48:36.712Z,87.60
2022-10-12T21:51:04.083Z,86.99
2022-10-12T21:53:30.671Z,87.33
2022-10-12T21:55:57.352Z,87.65
2022-10-12T21:58:23.786Z,88.08
2022-10-12T22:00:50.313Z,88.02
2022-10-12T22:03:16.704Z,88.04
2022-10-12T22:05:44.424Z,88.54
2022-10-12T22:08:10.940Z,89.01
2022-10-12T22:10:38.904Z,90.02
2022-10-12T22:13:06.846Z,90.73
2022-10-12T22:15:34.250Z,91.38
2022-10-12T22:18:09.529Z,91.63
2022-10-12T22:20:36.999Z,92.03
2022-10-12T22:23:04.006Z,92.81
2022-10-12T22:25:30.433Z,92.83
2022-10-12T22:27:56.799Z,93.07
2022-10-12T22:30:23.174Z,93.13
2022-10-12T22:32:49.572Z,93.98
2022-10-12T22:35:16.057Z,93.63
2022-10-12T22:37:43.069Z,93.62
2022-10-12T22:40:10.015Z,93.70
2022-10-12T22:42:36.399Z,93.78
2022-10-12T22:45:04.135Z,93.90
2022-10-12T22:47:30.519Z,94.07
2022-10-12T22:49:58.590Z,94.37
2022-10-12T22:52:24.965Z,94.63
2022-10-12T22:54:51.358Z,94.92
2022-10-12T22:57:17.786Z,95.36
2022-10-12T22:59:44.156Z,95.74
2022-10-12T23:02:10.571Z,96.23
2022-10-12T23:04:36.960Z,96.73
2022-10-12T23:07:03.319Z,96.65
2022-10-12T23:09:29.734Z,96.83
2022-10-12T23:11:56.438Z,96.89
2022-10-12T23:14:22.788Z,97.44
2022-10-12T23:16:49.165Z,97.39
2022-10-12T23:19:15.623Z,97.73
2022-10-12T23:21:42.028Z,97.86
2022-10-12T23:24:09.419Z,98.42
2022-10-12T23:26:35.831Z,98.21
2022-10-12T23:29:02.239Z,98.33
2022-10-12T23:31:30.470Z,98.71
2022-10-12T23:34:04.913Z,99.04
2022-10-12T23:36:33.507Z,99.04
2022-10-12T23:39:01.128Z,98.71
2022-10-12T23:41:27.567Z,98.27
2022-10-12T23:43:53.966Z,98.29
2022-10-12T23:46:20.554Z,98.25
2022-10-12T23:48:46.937Z,98.71
2022-10-12T23:51:13.394Z,98.49
2022-10-12T23:53:42.398Z,98.18
2022-10-12T23:56:09.573Z,98.19
2022-10-12T23:58:36.436Z,98.22
